createdAt,value
2017-11-20T00:00:04.328Z,6.3
2017-11-20T00:15:05.026Z,6
2017-11-20T00:30:05.794Z,5.8
2017-11-20T00:45:05.782Z,5.7
2017-11-20T01:00:05.184Z,5.7
2017-11-20T01:15:08.367Z,6
2017-11-20T01:30:05.320Z,6
2017-11-20T01:45:07.842Z,6.1
2017-11-20T02:00:04.957Z,6.1
2017-11-20T02:15:05.704Z,5.9
2017-11-20T02:30:04.480Z,6
2017-11-20T02:45:06.290Z,6.1
2017-11-20T03:00:07.896Z,5.7
2017-11-20T03:15:05.052Z,5.3
2017-11-20T03:30:05.097Z,5
2017-11-20T03:45:05.941Z,4.7
2017-11-20T04:00:05.044Z,4.6
2017-11-20T04:15:04.393Z,5
2017-11-20T04:30:20.566Z,4.9
2017-11-20T04:45:05.317Z,4.7
2017-11-20T05:00:04.788Z,4.7
2017-11-20T05:15:05.784Z,4.7
2017-11-20T05:30:04.648Z,5
2017-11-20T05:45:11.800Z,5
2017-11-20T06:00:04.702Z,5.3
2017-11-20T06:15:04.634Z,5.4
2017-11-20T06:30:05.056Z,5.6
2017-11-20T06:45:08.217Z,5.6
2017-11-20T07:00:05.544Z,5.8
2017-11-20T07:15:06.264Z,5.9
2017-11-20T07:30:04.390Z,6
2017-11-20T07:45:04.794Z,6.2
2017-11-20T08:00:05.774Z,6.6
2017-11-20T08:15:05.159Z,6.9
2017-11-20T08:30:04.752Z,7.1
2017-11-20T08:45:04.742Z,7.5
2017-11-20T09:00:04.628Z,7.8
2017-11-20T09:15:05.012Z,8
2017-11-20T09:30:04.671Z,8
2017-11-20T09:45:14.816Z,8.2
2017-11-20T10:00:07.501Z,8.4
2017-11-20T10:15:06.123Z,8.6
2017-11-20T10:30:07.964Z,9.4
2017-11-20T10:45:04.356Z,9.4
2017-11-20T11:00:05.429Z,9.5
2017-11-20T11:16:12.403Z,9.7
2017-11-20T11:30:06.322Z,9.8
2017-11-20T11:45:05.004Z,9.6
2017-11-20T12:00:08.207Z,9.3
2017-11-20T12:15:04.700Z,9.7
2017-11-20T12:30:04.408Z,9.7
2017-11-20T12:45:05.675Z,9.7
2017-11-20T13:00:05.503Z,9.9
2017-11-20T13:15:05.259Z,9.2
2017-11-20T13:30:05.881Z,9.1
2017-11-20T13:45:05.906Z,9
2017-11-20T14:00:07.993Z,8.9
2017-11-20T14:15:04.449Z,9.2
2017-11-20T14:30:05.413Z,9.2
2017-11-20T14:45:05.227Z,9.3
2017-11-20T15:00:04.992Z,9.1
2017-11-20T15:15:20.044Z,9.4
2017-11-20T15:30:04.914Z,9.2
2017-11-20T15:45:07.934Z,9
2017-11-20T16:00:05.887Z,9.1
2017-11-20T16:15:04.316Z,9
2017-11-20T16:30:07.911Z,8.9
2017-11-20T16:45:05.054Z,8.8
2017-11-20T17:00:04.569Z,8.7
2017-11-20T17:15:05.267Z,8.7
2017-11-20T17:30:08.121Z,8.7
2017-11-20T17:45:04.873Z,8.7
2017-11-20T18:00:11.686Z,8.7
2017-11-20T18:15:05.188Z,8.5
2017-11-20T18:30:05.184Z,8.2
2017-11-20T18:45:04.589Z,8.5
2017-11-20T19:00:06.097Z,8.1
2017-11-20T19:15:04.576Z,8.4
2017-11-20T19:31:09.830Z,8.4
2017-11-20T19:45:07.488Z,8.3
2017-11-20T20:00:05.990Z,8.3
2017-11-20T20:15:05.428Z,8.5
2017-11-20T20:30:04.516Z,8.4
2017-11-20T20:45:05.488Z,8.6
2017-11-20T21:00:04.416Z,8.6
2017-11-20T21:15:05.904Z,8.7
2017-11-20T21:30:05.576Z,8.5
2017-11-20T21:45:05.719Z,8.5
2017-11-20T22:00:06.458Z,8.6
2017-11-20T22:15:05.042Z,8.7
2017-11-20T22:30:05.918Z,8.6
2017-11-20T22:45:04.933Z,8.6
2017-11-20T23:00:11.674Z,8.7
2017-11-20T23:15:05.394Z,8.7
2017-11-20T23:30:05.205Z,8.7
2017-11-20T23:45:05.147Z,8.5
